Ellsworth Air Force Base
KRCA : now visible

Aeroporto :











RITROVATECI SU...

 
LOGIN :

Iscrizione | Disclaimer

   EN    FR    IT 

 









Sommario :    VFR   VFR Marginale   IFR   IFR Intensivo   IFR Molto Intensivo
Visibilità : 
Base nubi : 
>= 8 km
>= 3000ft
5 / 8 km
1000 / 3000 ft
1500m / 5 km
500 / 1000 ft
800 / 1500m
200 / 500 ft
< 800m
< 200 ft
Simboli :   Temporali  Nebbia  Neve Forte  Precipitazioni Forti  Vento > 20 kt






- Altitudine del aeroporto : 3276 ft


KRCA - Ellsworth Air Force Base

ULTIMO METAR :
  • 250856Z AUTO 34003KT 10SM BKN070 OVC150 M01/M04 A2985 RMK AO2 SLP134 T10141036 57009 $

METARs OBSOLETI :
  • 250756Z AUTO 29004KT 10SM CLR M04/M05 A2986 RMK AO2 SLP143 T10371054 $
  • 250656Z AUTO 26003KT 10SM BKN065 M01/M03 A2988 RMK AO2 SLP144 T10081035 400451091 $
  • 250556Z AUTO 27003KT 10SM OVC065 00/M04 A2988 RMK AO2 SLP147 T10041036 10012 21010 55002 $

TAF AMD TAF KRCA
Valido dal 24 a 22 ore il 26 a 01 ore UTC


242205Z 2422/2601 VRB06KT 9999 SCT060 QNH2988INS TX03/2422Z TNM02/2504Z LAST NO AMDS AFT 2422 NEXT 2711



MetMap, La meteo Aeronautica in un colpo d'occhio ! - Copyright ORBIFLY Dicembre 2007 - Disclaimer

ORBIFLY MET'MAP TEAM :

Programmazione e sviluppo : Alexandra Zaïnal
Concezione : Baudouin d'Aumeries
Aiuto per la programmazione : Marc-Olivier Méhu
Supporto tecnico e logistico : Manuel Goepfert
Aiuto per la traduzione : Arnaldo La Scala

Contatto : metmap@orbifly.com




FONTI E CREDITI :

   NOAA       Earth
Advisory